sensor_id;sensor_type;location;lat;lon;timestamp;P1;durP1;ratioP1;P2;durP2;ratioP2
74963;SDS011;63521;51.900;4.748;2022-12-18T00:02:20;19.80;;;6.55;;
74963;SDS011;63521;51.900;4.748;2022-12-18T00:04:47;22.83;;;5.55;;
74963;SDS011;63521;51.900;4.748;2022-12-18T00:07:12;18.92;;;6.43;;
74963;SDS011;63521;51.900;4.748;2022-12-18T00:09:37;19.75;;;6.15;;
74963;SDS011;63521;51.900;4.748;2022-12-18T00:12:03;22.83;;;5.45;;
74963;SDS011;63521;51.900;4.748;2022-12-18T00:14:28;19.48;;;7.15;;
74963;SDS011;63521;51.900;4.748;2022-12-18T00:16:54;19.75;;;5.93;;
74963;SDS011;63521;51.900;4.748;2022-12-18T00:19:19;21.05;;;6.38;;
74963;SDS011;63521;51.900;4.748;2022-12-18T00:21:44;16.05;;;5.45;;
74963;SDS011;63521;51.900;4.748;2022-12-18T00:24:10;19.88;;;6.38;;
74963;SDS011;63521;51.900;4.748;2022-12-18T00:26:37;16.52;;;5.97;;
74963;SDS011;63521;51.900;4.748;2022-12-18T00:29:05;19.33;;;5.57;;
74963;SDS011;63521;51.900;4.748;2022-12-18T00:31:35;21.73;;;6.00;;
74963;SDS011;63521;51.900;4.748;2022-12-18T00:34:02;17.60;;;5.78;;
74963;SDS011;63521;51.900;4.748;2022-12-18T00:38:54;15.20;;;5.30;;
74963;SDS011;63521;51.900;4.748;2022-12-18T00:41:21;21.45;;;5.75;;
74963;SDS011;63521;51.900;4.748;2022-12-18T00:44:06;16.63;;;5.40;;
74963;SDS011;63521;51.900;4.748;2022-12-18T00:46:32;16.60;;;5.60;;
74963;SDS011;63521;51.900;4.748;2022-12-18T00:48:58;17.60;;;6.50;;
74963;SDS011;63521;51.900;4.748;2022-12-18T00:51:23;20.73;;;6.35;;
74963;SDS011;63521;51.900;4.748;2022-12-18T00:53:50;21.08;;;6.85;;
74963;SDS011;63521;51.900;4.748;2022-12-18T00:56:16;16.55;;;5.70;;
74963;SDS011;63521;51.900;4.748;2022-12-18T00:58:41;15.32;;;5.90;;
74963;SDS011;63521;51.900;4.748;2022-12-18T01:01:06;22.23;;;6.63;;
74963;SDS011;63521;51.900;4.748;2022-12-18T01:03:32;20.80;;;6.72;;
74963;SDS011;63521;51.900;4.748;2022-12-18T01:05:57;20.50;;;6.70;;
74963;SDS011;63521;51.900;4.748;2022-12-18T01:08:23;14.52;;;5.95;;
74963;SDS011;63521;51.900;4.748;2022-12-18T01:10:48;20.90;;;6.28;;
74963;SDS011;63521;51.900;4.748;2022-12-18T01:13:14;21.33;;;5.90;;
74963;SDS011;63521;51.900;4.748;2022-12-18T01:15:39;18.63;;;5.75;;
74963;SDS011;63521;51.900;4.748;2022-12-18T01:18:05;20.20;;;6.43;;
74963;SDS011;63521;51.900;4.748;2022-12-18T01:22:56;14.13;;;4.80;;
74963;SDS011;63521;51.900;4.748;2022-12-18T01:25:21;18.77;;;6.00;;
74963;SDS011;63521;51.900;4.748;2022-12-18T01:27:47;17.55;;;5.18;;
74963;SDS011;63521;51.900;4.748;2022-12-18T01:32:37;12.93;;;4.43;;
74963;SDS011;63521;51.900;4.748;2022-12-18T01:35:03;17.40;;;6.68;;
74963;SDS011;63521;51.900;4.748;2022-12-18T01:37:28;18.80;;;6.40;;
74963;SDS011;63521;51.900;4.748;2022-12-18T01:39:54;14.00;;;5.13;;
74963;SDS011;63521;51.900;4.748;2022-12-18T01:42:20;18.08;;;5.45;;
74963;SDS011;63521;51.900;4.748;2022-12-18T01:44:59;17.38;;;5.53;;
74963;SDS011;63521;51.900;4.748;2022-12-18T01:50:03;19.05;;;5.68;;
74963;SDS011;63521;51.900;4.748;2022-12-18T01:52:31;18.52;;;6.97;;
74963;SDS011;63521;51.900;4.748;2022-12-18T01:54:58;17.55;;;5.88;;
74963;SDS011;63521;51.900;4.748;2022-12-18T01:57:25;19.35;;;5.15;;
74963;SDS011;63521;51.900;4.748;2022-12-18T01:59:52;19.02;;;5.72;;
74963;SDS011;63521;51.900;4.748;2022-12-18T02:02:19;16.98;;;5.25;;
74963;SDS011;63521;51.900;4.748;2022-12-18T02:04:45;20.23;;;6.32;;
74963;SDS011;63521;51.900;4.748;2022-12-18T02:18:13;16.83;;;5.30;;
74963;SDS011;63521;51.900;4.748;2022-12-18T02:20:46;19.05;;;6.00;;
74963;SDS011;63521;51.900;4.748;2022-12-18T02:28:40;16.58;;;5.78;;
74963;SDS011;63521;51.900;4.748;2022-12-18T02:31:08;17.90;;;5.22;;
74963;SDS011;63521;51.900;4.748;2022-12-18T02:33:37;17.77;;;6.28;;
74963;SDS011;63521;51.900;4.748;2022-12-18T02:36:04;15.52;;;5.65;;
74963;SDS011;63521;51.900;4.748;2022-12-18T02:38:30;18.13;;;5.78;;
74963;SDS011;63521;51.900;4.748;2022-12-18T02:40:56;17.55;;;5.63;;
74963;SDS011;63521;51.900;4.748;2022-12-18T02:43:22;18.42;;;5.85;;
74963;SDS011;63521;51.900;4.748;2022-12-18T02:48:14;18.42;;;5.78;;
74963;SDS011;63521;51.900;4.748;2022-12-18T02:50:44;17.90;;;5.55;;
74963;SDS011;63521;51.900;4.748;2022-12-18T02:53:24;20.20;;;6.25;;
74963;SDS011;63521;51.900;4.748;2022-12-18T02:56:13;19.90;;;5.82;;
74963;SDS011;63521;51.900;4.748;2022-12-18T02:58:52;19.95;;;5.93;;
74963;SDS011;63521;51.900;4.748;2022-12-18T03:03:59;17.63;;;5.97;;
74963;SDS011;63521;51.900;4.748;2022-12-18T03:06:29;24.10;;;6.25;;
74963;SDS011;63521;51.900;4.748;2022-12-18T03:09:01;17.85;;;6.13;;
74963;SDS011;63521;51.900;4.748;2022-12-18T03:11:29;19.35;;;6.05;;
74963;SDS011;63521;51.900;4.748;2022-12-18T03:14:16;17.75;;;6.38;;
74963;SDS011;63521;51.900;4.748;2022-12-18T03:16:42;17.95;;;6.25;;
74963;SDS011;63521;51.900;4.748;2022-12-18T03:19:16;19.08;;;6.78;;
74963;SDS011;63521;51.900;4.748;2022-12-18T03:21:45;19.50;;;5.80;;
74963;SDS011;63521;51.900;4.748;2022-12-18T03:24:13;19.00;;;6.32;;
74963;SDS011;63521;51.900;4.748;2022-12-18T03:26:40;23.60;;;6.85;;
74963;SDS011;63521;51.900;4.748;2022-12-18T03:29:07;17.75;;;6.80;;
74963;SDS011;63521;51.900;4.748;2022-12-18T03:31:35;18.35;;;6.20;;
74963;SDS011;63521;51.900;4.748;2022-12-18T03:34:04;21.23;;;6.20;;
74963;SDS011;63521;51.900;4.748;2022-12-18T03:36:31;17.65;;;6.32;;
74963;SDS011;63521;51.900;4.748;2022-12-18T03:38:58;24.00;;;6.70;;
74963;SDS011;63521;51.900;4.748;2022-12-18T03:47:13;17.55;;;5.88;;
74963;SDS011;63521;51.900;4.748;2022-12-18T03:49:46;18.30;;;6.18;;
74963;SDS011;63521;51.900;4.748;2022-12-18T03:52:17;18.63;;;5.57;;
74963;SDS011;63521;51.900;4.748;2022-12-18T03:54:46;16.60;;;5.47;;
74963;SDS011;63521;51.900;4.748;2022-12-18T03:57:13;18.45;;;6.07;;
74963;SDS011;63521;51.900;4.748;2022-12-18T03:59:43;17.02;;;5.57;;
74963;SDS011;63521;51.900;4.748;2022-12-18T04:02:09;16.77;;;6.38;;
74963;SDS011;63521;51.900;4.748;2022-12-18T04:04:35;18.58;;;6.22;;
74963;SDS011;63521;51.900;4.748;2022-12-18T04:07:03;18.05;;;6.05;;
74963;SDS011;63521;51.900;4.748;2022-12-18T04:09:29;19.63;;;6.47;;
74963;SDS011;63521;51.900;4.748;2022-12-18T04:11:55;16.00;;;6.20;;
74963;SDS011;63521;51.900;4.748;2022-12-18T04:14:20;16.42;;;5.85;;
74963;SDS011;63521;51.900;4.748;2022-12-18T04:16:46;18.83;;;6.38;;
74963;SDS011;63521;51.900;4.748;2022-12-18T04:19:11;18.13;;;6.05;;
74963;SDS011;63521;51.900;4.748;2022-12-18T04:21:37;16.50;;;5.70;;
74963;SDS011;63521;51.900;4.748;2022-12-18T04:24:02;16.05;;;5.30;;
74963;SDS011;63521;51.900;4.748;2022-12-18T04:26:27;15.43;;;5.93;;
74963;SDS011;63521;51.900;4.748;2022-12-18T04:28:53;18.75;;;6.03;;
74963;SDS011;63521;51.900;4.748;2022-12-18T04:31:18;19.50;;;6.65;;
74963;SDS011;63521;51.900;4.748;2022-12-18T04:33:44;17.23;;;5.68;;
74963;SDS011;63521;51.900;4.748;2022-12-18T04:36:09;16.77;;;5.60;;
74963;SDS011;63521;51.900;4.748;2022-12-18T04:38:35;19.13;;;6.18;;
74963;SDS011;63521;51.900;4.748;2022-12-18T04:41:00;16.33;;;5.50;;
74963;SDS011;63521;51.900;4.748;2022-12-18T04:43:25;16.48;;;5.03;;
74963;SDS011;63521;51.900;4.748;2022-12-18T04:45:51;13.73;;;6.20;;
74963;SDS011;63521;51.900;4.748;2022-12-18T04:48:16;19.30;;;5.70;;
74963;SDS011;63521;51.900;4.748;2022-12-18T04:50:41;16.25;;;4.85;;
74963;SDS011;63521;51.900;4.748;2022-12-18T04:53:07;16.38;;;5.80;;
74963;SDS011;63521;51.900;4.748;2022-12-18T04:55:32;14.23;;;5.07;;
74963;SDS011;63521;51.900;4.748;2022-12-18T04:57:58;14.27;;;5.88;;
74963;SDS011;63521;51.900;4.748;2022-12-18T05:00:23;17.80;;;5.70;;
74963;SDS011;63521;51.900;4.748;2022-12-18T05:02:48;15.48;;;5.47;;
74963;SDS011;63521;51.900;4.748;2022-12-18T05:05:14;18.17;;;5.93;;
74963;SDS011;63521;51.900;4.748;2022-12-18T05:07:39;19.40;;;5.53;;
74963;SDS011;63521;51.900;4.748;2022-12-18T05:10:06;18.20;;;5.70;;
74963;SDS011;63521;51.900;4.748;2022-12-18T05:12:31;15.68;;;4.80;;
74963;SDS011;63521;51.900;4.748;2022-12-18T05:14:57;16.42;;;5.25;;
74963;SDS011;63521;51.900;4.748;2022-12-18T05:17:22;20.58;;;6.15;;
74963;SDS011;63521;51.900;4.748;2022-12-18T05:19:48;17.50;;;5.57;;
74963;SDS011;63521;51.900;4.748;2022-12-18T05:22:13;14.88;;;5.13;;
74963;SDS011;63521;51.900;4.748;2022-12-18T05:24:38;16.73;;;5.47;;
74963;SDS011;63521;51.900;4.748;2022-12-18T05:27:04;14.73;;;4.95;;
74963;SDS011;63521;51.900;4.748;2022-12-18T05:29:29;14.70;;;5.00;;
74963;SDS011;63521;51.900;4.748;2022-12-18T05:31:55;19.33;;;6.20;;
74963;SDS011;63521;51.900;4.748;2022-12-18T05:36:46;15.47;;;5.10;;
74963;SDS011;63521;51.900;4.748;2022-12-18T05:39:12;15.13;;;5.32;;
74963;SDS011;63521;51.900;4.748;2022-12-18T05:41:38;11.77;;;4.57;;
74963;SDS011;63521;51.900;4.748;2022-12-18T05:44:04;14.00;;;5.05;;
74963;SDS011;63521;51.900;4.748;2022-12-18T05:46:29;15.60;;;5.60;;
74963;SDS011;63521;51.900;4.748;2022-12-18T05:48:55;16.70;;;5.30;;
74963;SDS011;63521;51.900;4.748;2022-12-18T05:51:20;13.90;;;5.15;;
74963;SDS011;63521;51.900;4.748;2022-12-18T05:53:47;13.40;;;4.82;;
74963;SDS011;63521;51.900;4.748;2022-12-18T05:56:17;13.80;;;4.70;;
74963;SDS011;63521;51.900;4.748;2022-12-18T05:58:44;15.43;;;5.32;;
74963;SDS011;63521;51.900;4.748;2022-12-18T06:01:11;15.82;;;4.95;;
74963;SDS011;63521;51.900;4.748;2022-12-18T06:03:37;14.13;;;5.00;;
74963;SDS011;63521;51.900;4.748;2022-12-18T06:06:03;15.00;;;5.07;;
74963;SDS011;63521;51.900;4.748;2022-12-18T06:08:29;14.32;;;4.53;;
74963;SDS011;63521;51.900;4.748;2022-12-18T06:10:54;11.60;;;4.57;;
74963;SDS011;63521;51.900;4.748;2022-12-18T06:13:20;14.38;;;4.30;;
74963;SDS011;63521;51.900;4.748;2022-12-18T06:18:11;14.37;;;4.77;;
74963;SDS011;63521;51.900;4.748;2022-12-18T06:20:36;16.63;;;4.47;;
74963;SDS011;63521;51.900;4.748;2022-12-18T06:23:04;12.88;;;4.80;;
74963;SDS011;63521;51.900;4.748;2022-12-18T06:25:30;12.13;;;4.75;;
74963;SDS011;63521;51.900;4.748;2022-12-18T06:27:55;10.65;;;4.03;;
74963;SDS011;63521;51.900;4.748;2022-12-18T06:30:21;14.65;;;4.70;;
74963;SDS011;63521;51.900;4.748;2022-12-18T06:32:47;13.52;;;4.95;;
74963;SDS011;63521;51.900;4.748;2022-12-18T06:35:13;11.90;;;4.63;;
74963;SDS011;63521;51.900;4.748;2022-12-18T06:37:39;12.02;;;4.22;;
74963;SDS011;63521;51.900;4.748;2022-12-18T06:40:04;11.85;;;5.00;;
74963;SDS011;63521;51.900;4.748;2022-12-18T06:42:30;12.38;;;4.53;;
74963;SDS011;63521;51.900;4.748;2022-12-18T06:44:57;12.57;;;4.15;;
74963;SDS011;63521;51.900;4.748;2022-12-18T06:47:22;13.95;;;4.57;;
74963;SDS011;63521;51.900;4.748;2022-12-18T06:49:47;12.85;;;4.80;;
74963;SDS011;63521;51.900;4.748;2022-12-18T06:52:14;13.65;;;4.28;;
74963;SDS011;63521;51.900;4.748;2022-12-18T06:54:42;12.18;;;4.22;;
74963;SDS011;63521;51.900;4.748;2022-12-18T06:57:08;15.07;;;4.60;;
74963;SDS011;63521;51.900;4.748;2022-12-18T06:59:34;12.50;;;4.47;;
74963;SDS011;63521;51.900;4.748;2022-12-18T07:02:00;12.30;;;3.70;;
74963;SDS011;63521;51.900;4.748;2022-12-18T07:04:29;12.15;;;4.05;;
74963;SDS011;63521;51.900;4.748;2022-12-18T07:06:55;11.48;;;4.55;;
74963;SDS011;63521;51.900;4.748;2022-12-18T07:09:20;13.57;;;4.13;;
74963;SDS011;63521;51.900;4.748;2022-12-18T07:11:46;12.75;;;4.97;;
74963;SDS011;63521;51.900;4.748;2022-12-18T07:14:11;11.77;;;4.00;;
74963;SDS011;63521;51.900;4.748;2022-12-18T07:16:36;8.65;;;3.60;;
74963;SDS011;63521;51.900;4.748;2022-12-18T07:19:02;14.52;;;4.38;;
74963;SDS011;63521;51.900;4.748;2022-12-18T07:21:27;8.00;;;3.55;;
74963;SDS011;63521;51.900;4.748;2022-12-18T07:23:53;10.98;;;4.00;;
74963;SDS011;63521;51.900;4.748;2022-12-18T07:26:19;9.40;;;3.90;;
74963;SDS011;63521;51.900;4.748;2022-12-18T07:28:45;10.05;;;3.40;;
74963;SDS011;63521;51.900;4.748;2022-12-18T07:31:11;9.23;;;4.10;;
74963;SDS011;63521;51.900;4.748;2022-12-18T07:33:38;10.57;;;4.25;;
74963;SDS011;63521;51.900;4.748;2022-12-18T07:36:04;11.27;;;3.88;;
74963;SDS011;63521;51.900;4.748;2022-12-18T07:38:31;11.45;;;4.60;;
74963;SDS011;63521;51.900;4.748;2022-12-18T07:43:29;11.48;;;3.30;;
74963;SDS011;63521;51.900;4.748;2022-12-18T07:45:54;10.73;;;4.10;;
74963;SDS011;63521;51.900;4.748;2022-12-18T07:48:19;15.52;;;4.15;;
74963;SDS011;63521;51.900;4.748;2022-12-18T07:50:45;12.57;;;3.72;;
74963;SDS011;63521;51.900;4.748;2022-12-18T07:53:10;11.65;;;4.22;;
74963;SDS011;63521;51.900;4.748;2022-12-18T07:55:36;11.88;;;3.60;;
74963;SDS011;63521;51.900;4.748;2022-12-18T07:58:02;9.52;;;3.63;;
74963;SDS011;63521;51.900;4.748;2022-12-18T08:00:28;12.55;;;3.80;;
74963;SDS011;63521;51.900;4.748;2022-12-18T08:02:53;8.48;;;3.60;;
74963;SDS011;63521;51.900;4.748;2022-12-18T08:05:19;9.23;;;4.00;;
74963;SDS011;63521;51.900;4.748;2022-12-18T08:07:45;11.75;;;3.65;;
74963;SDS011;63521;51.900;4.748;2022-12-18T08:10:11;8.55;;;3.40;;
74963;SDS011;63521;51.900;4.748;2022-12-18T08:12:36;9.63;;;3.60;;
74963;SDS011;63521;51.900;4.748;2022-12-18T08:15:02;9.90;;;4.00;;
74963;SDS011;63521;51.900;4.748;2022-12-18T08:17:27;9.10;;;3.75;;
74963;SDS011;63521;51.900;4.748;2022-12-18T08:19:53;7.47;;;3.65;;
74963;SDS011;63521;51.900;4.748;2022-12-18T08:22:18;12.43;;;4.03;;
74963;SDS011;63521;51.900;4.748;2022-12-18T08:24:44;9.05;;;3.17;;
74963;SDS011;63521;51.900;4.748;2022-12-18T08:27:09;9.38;;;3.72;;
74963;SDS011;63521;51.900;4.748;2022-12-18T08:29:35;9.35;;;3.20;;
74963;SDS011;63521;51.900;4.748;2022-12-18T08:32:00;8.73;;;3.42;;
74963;SDS011;63521;51.900;4.748;2022-12-18T08:34:25;7.88;;;3.67;;
74963;SDS011;63521;51.900;4.748;2022-12-18T08:36:51;8.52;;;3.15;;
74963;SDS011;63521;51.900;4.748;2022-12-18T08:39:16;10.25;;;4.07;;
74963;SDS011;63521;51.900;4.748;2022-12-18T08:41:42;9.98;;;3.83;;
74963;SDS011;63521;51.900;4.748;2022-12-18T08:44:07;11.18;;;3.92;;
74963;SDS011;63521;51.900;4.748;2022-12-18T08:46:51;8.50;;;3.22;;
74963;SDS011;63521;51.900;4.748;2022-12-18T08:49:16;8.13;;;3.25;;
74963;SDS011;63521;51.900;4.748;2022-12-18T08:51:42;11.68;;;3.80;;
74963;SDS011;63521;51.900;4.748;2022-12-18T08:54:08;8.40;;;3.08;;
74963;SDS011;63521;51.900;4.748;2022-12-18T08:56:36;10.38;;;4.22;;
74963;SDS011;63521;51.900;4.748;2022-12-18T08:59:02;9.38;;;3.85;;
74963;SDS011;63521;51.900;4.748;2022-12-18T09:01:27;9.05;;;3.15;;
74963;SDS011;63521;51.900;4.748;2022-12-18T09:03:53;9.60;;;3.53;;
74963;SDS011;63521;51.900;4.748;2022-12-18T09:06:19;7.68;;;2.95;;
74963;SDS011;63521;51.900;4.748;2022-12-18T09:08:46;8.63;;;3.33;;
74963;SDS011;63521;51.900;4.748;2022-12-18T09:11:13;9.50;;;4.03;;
74963;SDS011;63521;51.900;4.748;2022-12-18T09:13:46;7.35;;;3.35;;
74963;SDS011;63521;51.900;4.748;2022-12-18T09:16:11;6.97;;;2.58;;
74963;SDS011;63521;51.900;4.748;2022-12-18T09:18:36;9.15;;;3.17;;
74963;SDS011;63521;51.900;4.748;2022-12-18T09:21:09;10.02;;;3.42;;
74963;SDS011;63521;51.900;4.748;2022-12-18T09:23:35;8.45;;;3.33;;
74963;SDS011;63521;51.900;4.748;2022-12-18T09:26:00;9.10;;;3.45;;
74963;SDS011;63521;51.900;4.748;2022-12-18T09:28:26;7.20;;;2.47;;
74963;SDS011;63521;51.900;4.748;2022-12-18T09:30:52;8.95;;;3.47;;
74963;SDS011;63521;51.900;4.748;2022-12-18T09:33:17;7.03;;;3.65;;
74963;SDS011;63521;51.900;4.748;2022-12-18T09:35:43;9.93;;;3.60;;
74963;SDS011;63521;51.900;4.748;2022-12-18T09:38:11;7.40;;;3.50;;
74963;SDS011;63521;51.900;4.748;2022-12-18T09:40:41;9.63;;;3.70;;
74963;SDS011;63521;51.900;4.748;2022-12-18T09:43:09;8.23;;;2.90;;
74963;SDS011;63521;51.900;4.748;2022-12-18T09:45:44;8.02;;;3.22;;
74963;SDS011;63521;51.900;4.748;2022-12-18T09:48:18;7.75;;;3.40;;
74963;SDS011;63521;51.900;4.748;2022-12-18T09:50:46;5.72;;;2.65;;
74963;SDS011;63521;51.900;4.748;2022-12-18T09:53:14;6.68;;;2.97;;
74963;SDS011;63521;51.900;4.748;2022-12-18T09:55:43;8.57;;;3.47;;
74963;SDS011;63521;51.900;4.748;2022-12-18T09:58:24;6.25;;;2.95;;
74963;SDS011;63521;51.900;4.748;2022-12-18T10:00:53;8.43;;;3.65;;
74963;SDS011;63521;51.900;4.748;2022-12-18T10:03:19;6.20;;;3.35;;
74963;SDS011;63521;51.900;4.748;2022-12-18T10:08:23;8.40;;;2.92;;
74963;SDS011;63521;51.900;4.748;2022-12-18T10:10:53;9.23;;;3.20;;
74963;SDS011;63521;51.900;4.748;2022-12-18T10:13:25;9.07;;;3.22;;
74963;SDS011;63521;51.900;4.748;2022-12-18T10:16:24;8.38;;;3.10;;
74963;SDS011;63521;51.900;4.748;2022-12-18T10:21:48;8.40;;;3.58;;
74963;SDS011;63521;51.900;4.748;2022-12-18T10:24:41;9.02;;;3.70;;
74963;SDS011;63521;51.900;4.748;2022-12-18T10:29:42;7.20;;;3.25;;
74963;SDS011;63521;51.900;4.748;2022-12-18T10:32:13;7.93;;;3.40;;
74963;SDS011;63521;51.900;4.748;2022-12-18T10:34:40;9.40;;;3.78;;
74963;SDS011;63521;51.900;4.748;2022-12-18T10:37:06;8.20;;;3.70;;
74963;SDS011;63521;51.900;4.748;2022-12-18T10:39:37;9.23;;;3.75;;
74963;SDS011;63521;51.900;4.748;2022-12-18T10:42:16;9.45;;;3.30;;
74963;SDS011;63521;51.900;4.748;2022-12-18T10:44:43;6.65;;;3.40;;
74963;SDS011;63521;51.900;4.748;2022-12-18T10:47:11;8.50;;;3.85;;
74963;SDS011;63521;51.900;4.748;2022-12-18T10:49:42;9.60;;;3.67;;
74963;SDS011;63521;51.900;4.748;2022-12-18T10:52:21;8.00;;;3.55;;
74963;SDS011;63521;51.900;4.748;2022-12-18T10:57:45;9.57;;;3.55;;
74963;SDS011;63521;51.900;4.748;2022-12-18T11:00:21;9.13;;;3.80;;
74963;SDS011;63521;51.900;4.748;2022-12-18T11:02:47;10.18;;;4.03;;
74963;SDS011;63521;51.900;4.748;2022-12-18T11:05:25;9.48;;;4.25;;
74963;SDS011;63521;51.900;4.748;2022-12-18T11:08:27;9.63;;;3.55;;
74963;SDS011;63521;51.900;4.748;2022-12-18T11:10:53;11.02;;;3.60;;
74963;SDS011;63521;51.900;4.748;2022-12-18T11:13:20;10.18;;;3.50;;
74963;SDS011;63521;51.900;4.748;2022-12-18T11:15:47;8.10;;;3.40;;
74963;SDS011;63521;51.900;4.748;2022-12-18T11:18:17;8.50;;;3.30;;
74963;SDS011;63521;51.900;4.748;2022-12-18T11:20:52;8.40;;;3.17;;
74963;SDS011;63521;51.900;4.748;2022-12-18T11:23:20;9.90;;;3.75;;
74963;SDS011;63521;51.900;4.748;2022-12-18T11:25:51;8.32;;;3.53;;
74963;SDS011;63521;51.900;4.748;2022-12-18T11:30:49;11.35;;;4.32;;
74963;SDS011;63521;51.900;4.748;2022-12-18T11:33:34;8.35;;;3.53;;
74963;SDS011;63521;51.900;4.748;2022-12-18T11:36:01;6.95;;;3.35;;
74963;SDS011;63521;51.900;4.748;2022-12-18T11:43:38;9.43;;;3.75;;
74963;SDS011;63521;51.900;4.748;2022-12-18T11:46:10;9.27;;;3.50;;
74963;SDS011;63521;51.900;4.748;2022-12-18T11:48:43;9.68;;;4.22;;
74963;SDS011;63521;51.900;4.748;2022-12-18T11:51:14;9.70;;;3.65;;
74963;SDS011;63521;51.900;4.748;2022-12-18T11:53:43;11.85;;;3.67;;
74963;SDS011;63521;51.900;4.748;2022-12-18T11:56:26;7.63;;;3.85;;
74963;SDS011;63521;51.900;4.748;2022-12-18T12:15:16;10.18;;;4.15;;
74963;SDS011;63521;51.900;4.748;2022-12-18T12:26:08;10.10;;;3.53;;
74963;SDS011;63521;51.900;4.748;2022-12-18T12:31:26;10.70;;;4.35;;
74963;SDS011;63521;51.900;4.748;2022-12-18T12:39:36;7.18;;;3.75;;
74963;SDS011;63521;51.900;4.748;2022-12-18T12:42:04;9.80;;;3.65;;
74963;SDS011;63521;51.900;4.748;2022-12-18T12:44:54;10.70;;;4.20;;
74963;SDS011;63521;51.900;4.748;2022-12-18T12:47:22;8.82;;;3.83;;
74963;SDS011;63521;51.900;4.748;2022-12-18T12:49:52;10.05;;;4.32;;
74963;SDS011;63521;51.900;4.748;2022-12-18T12:52:22;11.63;;;4.47;;
74963;SDS011;63521;51.900;4.748;2022-12-18T12:54:51;10.57;;;4.07;;
74963;SDS011;63521;51.900;4.748;2022-12-18T12:57:20;7.65;;;3.75;;
74963;SDS011;63521;51.900;4.748;2022-12-18T13:02:42;11.93;;;5.00;;
74963;SDS011;63521;51.900;4.748;2022-12-18T13:05:21;8.57;;;3.92;;
74963;SDS011;63521;51.900;4.748;2022-12-18T13:08:09;8.80;;;4.22;;
74963;SDS011;63521;51.900;4.748;2022-12-18T13:10:36;9.60;;;3.85;;
74963;SDS011;63521;51.900;4.748;2022-12-18T13:13:09;8.98;;;3.80;;
74963;SDS011;63521;51.900;4.748;2022-12-18T13:15:44;9.73;;;4.00;;
74963;SDS011;63521;51.900;4.748;2022-12-18T13:20:44;7.75;;;3.80;;
74963;SDS011;63521;51.900;4.748;2022-12-18T13:25:52;9.40;;;3.92;;
74963;SDS011;63521;51.900;4.748;2022-12-18T13:30:47;8.75;;;3.58;;
74963;SDS011;63521;51.900;4.748;2022-12-18T13:41:04;9.35;;;3.88;;
74963;SDS011;63521;51.900;4.748;2022-12-18T13:43:47;10.48;;;4.18;;
74963;SDS011;63521;51.900;4.748;2022-12-18T13:46:29;8.98;;;4.05;;
74963;SDS011;63521;51.900;4.748;2022-12-18T13:51:48;9.93;;;4.40;;
74963;SDS011;63521;51.900;4.748;2022-12-18T13:56:55;10.18;;;3.97;;
74963;SDS011;63521;51.900;4.748;2022-12-18T13:59:22;8.80;;;3.95;;
74963;SDS011;63521;51.900;4.748;2022-12-18T14:01:56;10.20;;;4.35;;
74963;SDS011;63521;51.900;4.748;2022-12-18T14:04:29;9.52;;;3.83;;
74963;SDS011;63521;51.900;4.748;2022-12-18T14:07:02;10.35;;;4.00;;
74963;SDS011;63521;51.900;4.748;2022-12-18T14:09:29;11.10;;;4.28;;
74963;SDS011;63521;51.900;4.748;2022-12-18T14:11:55;9.15;;;4.07;;
74963;SDS011;63521;51.900;4.748;2022-12-18T14:14:42;9.75;;;4.25;;
74963;SDS011;63521;51.900;4.748;2022-12-18T14:17:10;10.93;;;4.13;;
74963;SDS011;63521;51.900;4.748;2022-12-18T14:19:36;11.32;;;4.70;;
74963;SDS011;63521;51.900;4.748;2022-12-18T14:22:02;8.20;;;4.05;;
74963;SDS011;63521;51.900;4.748;2022-12-18T14:26:57;8.93;;;3.70;;
74963;SDS011;63521;51.900;4.748;2022-12-18T14:29:38;10.55;;;4.28;;
74963;SDS011;63521;51.900;4.748;2022-12-18T14:32:15;9.32;;;4.85;;
74963;SDS011;63521;51.900;4.748;2022-12-18T14:34:46;10.10;;;4.43;;
74963;SDS011;63521;51.900;4.748;2022-12-18T14:37:13;8.35;;;4.10;;
74963;SDS011;63521;51.900;4.748;2022-12-18T14:39:40;10.10;;;4.70;;
74963;SDS011;63521;51.900;4.748;2022-12-18T14:42:05;8.23;;;4.53;;
74963;SDS011;63521;51.900;4.748;2022-12-18T14:44:31;9.73;;;3.95;;
74963;SDS011;63521;51.900;4.748;2022-12-18T14:46:56;9.35;;;4.28;;
74963;SDS011;63521;51.900;4.748;2022-12-18T14:49:31;8.88;;;4.25;;
74963;SDS011;63521;51.900;4.748;2022-12-18T14:52:02;10.32;;;4.28;;
74963;SDS011;63521;51.900;4.748;2022-12-18T14:54:29;9.85;;;4.20;;
74963;SDS011;63521;51.900;4.748;2022-12-18T14:56:58;9.23;;;4.45;;
74963;SDS011;63521;51.900;4.748;2022-12-18T14:59:25;8.98;;;4.30;;
74963;SDS011;63521;51.900;4.748;2022-12-18T15:04:25;10.70;;;4.57;;
74963;SDS011;63521;51.900;4.748;2022-12-18T15:09:42;10.20;;;4.68;;
74963;SDS011;63521;51.900;4.748;2022-12-18T15:12:20;12.38;;;4.75;;
74963;SDS011;63521;51.900;4.748;2022-12-18T15:14:50;9.52;;;4.72;;
74963;SDS011;63521;51.900;4.748;2022-12-18T15:17:20;6.90;;;4.30;;
74963;SDS011;63521;51.900;4.748;2022-12-18T15:19:47;7.53;;;4.30;;
74963;SDS011;63521;51.900;4.748;2022-12-18T15:25:25;10.00;;;4.15;;
74963;SDS011;63521;51.900;4.748;2022-12-18T15:27:53;10.07;;;4.57;;
74963;SDS011;63521;51.900;4.748;2022-12-18T15:30:20;8.57;;;4.15;;
74963;SDS011;63521;51.900;4.748;2022-12-18T15:32:47;9.80;;;4.88;;
74963;SDS011;63521;51.900;4.748;2022-12-18T15:35:21;11.57;;;4.72;;
74963;SDS011;63521;51.900;4.748;2022-12-18T15:37:47;9.95;;;3.97;;
74963;SDS011;63521;51.900;4.748;2022-12-18T15:40:15;9.18;;;4.90;;
74963;SDS011;63521;51.900;4.748;2022-12-18T15:42:42;9.18;;;4.22;;
74963;SDS011;63521;51.900;4.748;2022-12-18T15:45:26;13.02;;;4.72;;
74963;SDS011;63521;51.900;4.748;2022-12-18T15:47:52;11.95;;;4.95;;
74963;SDS011;63521;51.900;4.748;2022-12-18T15:50:17;10.68;;;4.93;;
74963;SDS011;63521;51.900;4.748;2022-12-18T15:52:44;10.52;;;4.65;;
74963;SDS011;63521;51.900;4.748;2022-12-18T15:55:12;12.30;;;4.93;;
74963;SDS011;63521;51.900;4.748;2022-12-18T15:57:57;12.77;;;4.68;;
74963;SDS011;63521;51.900;4.748;2022-12-18T16:00:22;10.70;;;4.65;;
74963;SDS011;63521;51.900;4.748;2022-12-18T16:02:47;11.52;;;4.40;;
74963;SDS011;63521;51.900;4.748;2022-12-18T16:05:16;10.93;;;4.53;;
74963;SDS011;63521;51.900;4.748;2022-12-18T16:07:43;11.50;;;5.13;;
74963;SDS011;63521;51.900;4.748;2022-12-18T16:10:09;8.32;;;4.07;;
74963;SDS011;63521;51.900;4.748;2022-12-18T16:19:35;11.20;;;4.28;;
74963;SDS011;63521;51.900;4.748;2022-12-18T16:22:00;9.70;;;4.85;;
74963;SDS011;63521;51.900;4.748;2022-12-18T16:24:29;14.55;;;4.78;;
74963;SDS011;63521;51.900;4.748;2022-12-18T16:26:57;12.60;;;5.22;;
74963;SDS011;63521;51.900;4.748;2022-12-18T16:29:24;15.23;;;5.03;;
74963;SDS011;63521;51.900;4.748;2022-12-18T16:31:52;11.02;;;5.43;;
74963;SDS011;63521;51.900;4.748;2022-12-18T16:34:28;13.48;;;5.38;;
74963;SDS011;63521;51.900;4.748;2022-12-18T16:36:55;11.10;;;4.72;;
74963;SDS011;63521;51.900;4.748;2022-12-18T16:39:24;10.02;;;4.82;;
74963;SDS011;63521;51.900;4.748;2022-12-18T16:41:51;13.23;;;5.45;;
74963;SDS011;63521;51.900;4.748;2022-12-18T16:44:16;11.65;;;5.10;;
74963;SDS011;63521;51.900;4.748;2022-12-18T16:46:42;11.25;;;4.95;;
74963;SDS011;63521;51.900;4.748;2022-12-18T16:49:10;10.23;;;4.68;;
74963;SDS011;63521;51.900;4.748;2022-12-18T16:51:35;12.88;;;5.70;;
74963;SDS011;63521;51.900;4.748;2022-12-18T16:54:01;11.93;;;5.00;;
74963;SDS011;63521;51.900;4.748;2022-12-18T16:56:26;9.88;;;4.72;;
74963;SDS011;63521;51.900;4.748;2022-12-18T16:58:56;11.07;;;4.32;;
74963;SDS011;63521;51.900;4.748;2022-12-18T17:01:22;11.80;;;4.97;;
74963;SDS011;63521;51.900;4.748;2022-12-18T17:03:54;12.18;;;5.55;;